Aegean Orion — SVA2487 — position and weather

sailwx.info

Track history (hours):
 
Tides and Currents Weather Stations Pressure Air Temp Water Temp Dewpoint Dewpoint Depression Visibility Wind Speed Wind Dir Waves Ship Positions

Aegean Orion

Last reported at 2016-Jul-29 13:33 UTC. Time now 2016-Jul-29 14:01 UTC.
Position N 37°57' E 023°34'.

; draft 2.4 m.

Type: Ship. MMSI: 239550200.

Date/timePositionNaut miles runAvg speedWind from/ knotsBaromVisibWave heightAir tempDewpointWater temp
2016-Jul-29 13:33N 37°57' E 023°34'0 0.0
2016-Jul-29 12:33N 37°57' E 023°34'3 2.7
2016-Jul-29 11:33N 37°60' E 023°33'3 3.0
2016-Jul-29 10:33N 38°02' E 023°31'0 0.0
2016-Jul-29 09:33N 38°02' E 023°31'0 0.0
2016-Jul-29 08:33N 38°02' E 023°31'0 0.0
2016-Jul-29 07:33N 38°02' E 023°31'0 0.0
2016-Jul-29 06:33N 38°02' E 023°31'0 0.1
2016-Jul-29 05:33N 38°02' E 023°31'0 0.0
2016-Jul-29 04:33N 38°02' E 023°31'0 0.0
2016-Jul-29 03:33N 38°02' E 023°31'0 0.4
2016-Jul-29 02:33N 38°02' E 023°31'6 5.8
2016-Jul-29 01:33N 37°58' E 023°26'6 5.9
2016-Jul-29 00:34N 37°52' E 023°26'8 7.7
2016-Jul-28 23:33N 37°55' E 023°35'4 3.5
2016-Jul-28 22:33N 37°57' E 023°38'0 0.0
2016-Jul-28 21:34N 37°57' E 023°38'1 0.5
2016-Jul-28 20:33N 37°56' E 023°38'3 2.9
2016-Jul-28 19:34N 37°57' E 023°34'0 0.0
2016-Jul-28 18:33N 37°57' E 023°34'0 0.0
2016-Jul-28 17:33N 37°57' E 023°34'0 0.0
2016-Jul-28 16:34N 37°57' E 023°34'0 0.0
2016-Jul-28 15:33N 37°57' E 023°34'0 0.0
2016-Jul-28 14:34N 37°57' E 023°35'3 3.1
2016-Jul-28 13:34N 37°57' E 023°38'0 0.0
2016-Jul-28 12:34N 37°57' E 023°38'2 1.9
2016-Jul-28 11:33N 37°57' E 023°36'6 6.4
2016-Jul-28 10:33N 38°02' E 023°32'0 0.1
2016-Jul-28 09:33N 38°02' E 023°32'0 0.0
2016-Jul-28 08:33N 38°02' E 023°32'0 0.0
2016-Jul-28 07:33N 38°02' E 023°32'1 0.1
2016-Jul-27 15:34N 38°01' E 023°32'6 6.3
2016-Jul-27 14:33N 37°56' E 023°37'1 0.9
2016-Jul-27 13:34N 37°57' E 023°38'3 2.9
2016-Jul-27 12:34N 37°57' E 023°35'5 5.0
2016-Jul-27 11:33N 38°02' E 023°35'0 0.0
2016-Jul-27 10:34N 38°02' E 023°35'0 0.0
2016-Jul-27 09:33N 38°02' E 023°35'0 0.0
2016-Jul-27 08:33N 38°02' E 023°35'3 0.7
2016-Jul-27 04:33N 38°02' E 023°32'0 0.0
2016-Jul-26 11:04N 38°02' E 023°32'1 1.1
2016-Jul-26 10:33N 38°02' E 023°32'7 6.8
2016-Jul-26 09:33N 37°56' E 023°37'1 0.5
2016-Jul-26 08:33N 37°56' E 023°37'0 0.0
2016-Jul-26 07:33N 37°56' E 023°37'2 2.4
2016-Jul-26 06:33N 37°57' E 023°35'0 0.1
2016-Jul-26 05:33N 37°57' E 023°35'0 0.0
2016-Jul-26 04:34N 37°57' E 023°35'0 0.0
2016-Jul-26 03:33N 37°57' E 023°35'0 0.0
2016-Jul-26 02:34N 37°57' E 023°35'0 0.0
2016-Jul-26 01:33N 37°57' E 023°35'0 0.0
2016-Jul-26 00:33N 37°57' E 023°35'0 0.0
2016-Jul-25 23:33N 37°57' E 023°35'3 3.1
2016-Jul-25 22:34N 37°57' E 023°38'0 0.0
2016-Jul-25 21:34N 37°57' E 023°38'0 0.1
2016-Jul-25 20:33N 37°57' E 023°38'0 0.0
2016-Jul-25 19:33N 37°57' E 023°38'0 0.0
2016-Jul-25 18:33N 37°57' E 023°38'0 0.0
2016-Jul-25 17:33N 37°57' E 023°38'2 1.9
2016-Jul-25 16:33N 37°57' E 023°36'5 5.5
2016-Jul-25 15:34N 38°01' E 023°32'1 1.0
2016-Jul-25 14:33N 38°02' E 023°32'0 0.0
2016-Jul-25 13:33N 38°02' E 023°32'0 0.0
2016-Jul-25 12:33N 38°02' E 023°32'0 0.0
2016-Jul-25 11:33N 38°02' E 023°32'0 0.0
2016-Jul-25 10:34N 38°02' E 023°32'3 2.7
2016-Jul-25 09:33N 38°02' E 023°35'0 0.0
2016-Jul-25 08:33N 38°02' E 023°35'0 0.0
2016-Jul-25 07:33N 38°02' E 023°35'0 0.0
2016-Jul-25 06:33N 38°02' E 023°35'1 1.3
2016-Jul-25 05:33N 38°02' E 023°34'1 0.1
2016-Jul-24 15:34N 38°02' E 023°32'4 3.8
2016-Jul-24 14:33N 37°58' E 023°33'5 4.7
2016-Jul-24 13:33N 37°57' E 023°38'0 0.0
2016-Jul-24 12:33N 37°57' E 023°38'1 1.4
2016-Jul-24 11:34N 37°56' E 023°37'6 5.9
2016-Jul-24 10:33N 38°01' E 023°32'1 0.1
2016-Jul-23 13:30N 38°02' E 023°32'3 3.5
2016-Jul-23 12:33N 37°59' E 023°33'4 4.4
2016-Jul-23 11:33N 37°56' E 023°37'0 0.0
2016-Jul-23 10:33N 37°56' E 023°37'1 1.1
2016-Jul-23 09:33N 37°57' E 023°36'2 1.7
2016-Jul-23 08:33N 37°57' E 023°34'1 0.7
2016-Jul-23 07:34N 37°57' E 023°33'5 5.3
2016-Jul-23 06:33N 38°02' E 023°31'0 0.0
2016-Jul-23 04:33N 38°02' E 023°31'0 0.0
2016-Jul-23 03:34N 38°02' E 023°31'0 0.0
2016-Jul-23 02:34N 38°02' E 023°31'5 4.8
2016-Jul-23 01:33N 37°60' E 023°26'7 6.7
2016-Jul-23 00:33N 37°53' E 023°24'8 7.7
2016-Jul-22 23:33N 37°54' E 023°33'5 4.8
2016-Jul-22 22:34N 37°57' E 023°38'0 0.0
2016-Jul-22 21:34N 37°57' E 023°38'0 0.1
2016-Jul-22 20:33N 37°57' E 023°38'3 3.1
2016-Jul-22 19:33N 37°57' E 023°34'0 0.0
2016-Jul-22 18:33N 37°57' E 023°35'0 0.0
2016-Jul-22 17:33N 37°57' E 023°35'0 0.0
2016-Jul-22 16:33N 37°57' E 023°34'0 0.0
2016-Jul-22 15:33N 37°57' E 023°34'3 2.7
2016-Jul-22 14:33N 37°56' E 023°38'1 0.7
2016-Jul-22 13:33N 37°57' E 023°38'0 0.0
2016-Jul-22 12:34N 37°57' E 023°38'3 3.2
2016-Jul-22 11:33N 37°57' E 023°34'0 0.1
2016-Jul-22 10:33N 37°57' E 023°34'3 2.6
2016-Jul-22 09:33N 37°56' E 023°38'0 0.0
2016-Jul-22 08:33N 37°56' E 023°38'0 0.0
2016-Jul-22 07:33N 37°56' E 023°38'2 2.5
2016-Jul-22 06:33N 37°57' E 023°34'6 0.3
2016-Jul-21 11:33N 38°02' E 023°32'1 0.9
2016-Jul-21 10:33N 38°02' E 023°31'0 0.0
2016-Jul-21 09:34N 38°02' E 023°31'0 0.4
2016-Jul-21 08:34N 38°02' E 023°31'3 3.2
2016-Jul-21 07:34N 38°02' E 023°35'0 0.0
2016-Jul-21 06:34N 38°02' E 023°35'0 0.0
2016-Jul-21 05:34N 38°02' E 023°35'0 0.0
2016-Jul-21 04:34N 38°02' E 023°35'3 0.2
2016-Jul-20 15:31N 38°02' E 023°32'5 5.3
2016-Jul-20 14:33N 37°57' E 023°33'4 4.0
2016-Jul-20 13:33N 37°57' E 023°38'0 0.0
2016-Jul-20 12:33N 37°57' E 023°38'2 1.8
2016-Jul-20 11:33N 37°57' E 023°36'5 4.6
2016-Jul-20 10:33N 38°00' E 023°33'2 1.9
2016-Jul-20 09:34N 38°02' E 023°32'  
Track history (hours):
 
Tides and Currents Weather Stations Pressure Air Temp Water Temp Dewpoint Dewpoint Depression Visibility Wind Speed Wind Dir Waves Ship Positions

Aegean Orion

Last reported at 2016-Jul-29 13:33 UTC. Time now 2016-Jul-29 14:01 UTC.
Position N 37°57' E 023°34'.

; draft 2.4 m.

Type: Ship. MMSI: 239550200.

Date/timePositionNaut miles runAvg speedWind from/ knotsBaromVisibWave heightAir tempDewpointWater temp
2016-Jul-29 13:33N 37°57' E 023°34'0 0.0
2016-Jul-29 12:33N 37°57' E 023°34'3 2.7
2016-Jul-29 11:33N 37°60' E 023°33'3 3.0
2016-Jul-29 10:33N 38°02' E 023°31'0 0.0
2016-Jul-29 09:33N 38°02' E 023°31'0 0.0
2016-Jul-29 08:33N 38°02' E 023°31'0 0.0
2016-Jul-29 07:33N 38°02' E 023°31'0 0.0
2016-Jul-29 06:33N 38°02' E 023°31'0 0.1
2016-Jul-29 05:33N 38°02' E 023°31'0 0.0
2016-Jul-29 04:33N 38°02' E 023°31'0 0.0
2016-Jul-29 03:33N 38°02' E 023°31'0 0.4
2016-Jul-29 02:33N 38°02' E 023°31'6 5.8
2016-Jul-29 01:33N 37°58' E 023°26'6 5.9
2016-Jul-29 00:34N 37°52' E 023°26'8 7.7
2016-Jul-28 23:33N 37°55' E 023°35'4 3.5
2016-Jul-28 22:33N 37°57' E 023°38'0 0.0
2016-Jul-28 21:34N 37°57' E 023°38'1 0.5
2016-Jul-28 20:33N 37°56' E 023°38'3 2.9
2016-Jul-28 19:34N 37°57' E 023°34'0 0.0
2016-Jul-28 18:33N 37°57' E 023°34'0 0.0
2016-Jul-28 17:33N 37°57' E 023°34'0 0.0
2016-Jul-28 16:34N 37°57' E 023°34'0 0.0
2016-Jul-28 15:33N 37°57' E 023°34'0 0.0
2016-Jul-28 14:34N 37°57' E 023°35'3 3.1
2016-Jul-28 13:34N 37°57' E 023°38'0 0.0
2016-Jul-28 12:34N 37°57' E 023°38'2 1.9
2016-Jul-28 11:33N 37°57' E 023°36'6 6.4
2016-Jul-28 10:33N 38°02' E 023°32'0 0.1
2016-Jul-28 09:33N 38°02' E 023°32'0 0.0
2016-Jul-28 08:33N 38°02' E 023°32'0 0.0
2016-Jul-28 07:33N 38°02' E 023°32'1 0.1
2016-Jul-27 15:34N 38°01' E 023°32'6 6.3
2016-Jul-27 14:33N 37°56' E 023°37'1 0.9
2016-Jul-27 13:34N 37°57' E 023°38'3 2.9
2016-Jul-27 12:34N 37°57' E 023°35'5 5.0
2016-Jul-27 11:33N 38°02' E 023°35'0 0.0
2016-Jul-27 10:34N 38°02' E 023°35'0 0.0
2016-Jul-27 09:33N 38°02' E 023°35'0 0.0
2016-Jul-27 08:33N 38°02' E 023°35'3 0.7
2016-Jul-27 04:33N 38°02' E 023°32'0 0.0
2016-Jul-26 11:04N 38°02' E 023°32'1 1.1
2016-Jul-26 10:33N 38°02' E 023°32'7 6.8
2016-Jul-26 09:33N 37°56' E 023°37'1 0.5
2016-Jul-26 08:33N 37°56' E 023°37'0 0.0
2016-Jul-26 07:33N 37°56' E 023°37'2 2.4
2016-Jul-26 06:33N 37°57' E 023°35'0 0.1
2016-Jul-26 05:33N 37°57' E 023°35'0 0.0
2016-Jul-26 04:34N 37°57' E 023°35'0 0.0
2016-Jul-26 03:33N 37°57' E 023°35'0 0.0
2016-Jul-26 02:34N 37°57' E 023°35'0 0.0
2016-Jul-26 01:33N 37°57' E 023°35'0 0.0
2016-Jul-26 00:33N 37°57' E 023°35'0 0.0
2016-Jul-25 23:33N 37°57' E 023°35'3 3.1
2016-Jul-25 22:34N 37°57' E 023°38'0 0.0
2016-Jul-25 21:34N 37°57' E 023°38'0 0.1
2016-Jul-25 20:33N 37°57' E 023°38'0 0.0
2016-Jul-25 19:33N 37°57' E 023°38'0 0.0
2016-Jul-25 18:33N 37°57' E 023°38'0 0.0
2016-Jul-25 17:33N 37°57' E 023°38'2 1.9
2016-Jul-25 16:33N 37°57' E 023°36'5 5.5
2016-Jul-25 15:34N 38°01' E 023°32'1 1.0
2016-Jul-25 14:33N 38°02' E 023°32'0 0.0
2016-Jul-25 13:33N 38°02' E 023°32'0 0.0
2016-Jul-25 12:33N 38°02' E 023°32'0 0.0
2016-Jul-25 11:33N 38°02' E 023°32'0 0.0
2016-Jul-25 10:34N 38°02' E 023°32'3 2.7
2016-Jul-25 09:33N 38°02' E 023°35'0 0.0
2016-Jul-25 08:33N 38°02' E 023°35'0 0.0
2016-Jul-25 07:33N 38°02' E 023°35'0 0.0
2016-Jul-25 06:33N 38°02' E 023°35'1 1.3
2016-Jul-25 05:33N 38°02' E 023°34'1 0.1
2016-Jul-24 15:34N 38°02' E 023°32'4 3.8
2016-Jul-24 14:33N 37°58' E 023°33'5 4.7
2016-Jul-24 13:33N 37°57' E 023°38'0 0.0
2016-Jul-24 12:33N 37°57' E 023°38'1 1.4
2016-Jul-24 11:34N 37°56' E 023°37'6 5.9
2016-Jul-24 10:33N 38°01' E 023°32'1 0.1
2016-Jul-23 13:30N 38°02' E 023°32'3 3.5
2016-Jul-23 12:33N 37°59' E 023°33'4 4.4
2016-Jul-23 11:33N 37°56' E 023°37'0 0.0
2016-Jul-23 10:33N 37°56' E 023°37'1 1.1
2016-Jul-23 09:33N 37°57' E 023°36'2 1.7
2016-Jul-23 08:33N 37°57' E 023°34'1 0.7
2016-Jul-23 07:34N 37°57' E 023°33'5 5.3
2016-Jul-23 06:33N 38°02' E 023°31'0 0.0
2016-Jul-23 04:33N 38°02' E 023°31'0 0.0
2016-Jul-23 03:34N 38°02' E 023°31'0 0.0
2016-Jul-23 02:34N 38°02' E 023°31'5 4.8
2016-Jul-23 01:33N 37°60' E 023°26'7 6.7
2016-Jul-23 00:33N 37°53' E 023°24'8 7.7
2016-Jul-22 23:33N 37°54' E 023°33'5 4.8
2016-Jul-22 22:34N 37°57' E 023°38'0 0.0
2016-Jul-22 21:34N 37°57' E 023°38'0 0.1
2016-Jul-22 20:33N 37°57' E 023°38'3 3.1
2016-Jul-22 19:33N 37°57' E 023°34'0 0.0
2016-Jul-22 18:33N 37°57' E 023°35'0 0.0
2016-Jul-22 17:33N 37°57' E 023°35'0 0.0
2016-Jul-22 16:33N 37°57' E 023°34'0 0.0
2016-Jul-22 15:33N 37°57' E 023°34'3 2.7
2016-Jul-22 14:33N 37°56' E 023°38'1 0.7
2016-Jul-22 13:33N 37°57' E 023°38'0 0.0
2016-Jul-22 12:34N 37°57' E 023°38'3 3.2
2016-Jul-22 11:33N 37°57' E 023°34'0 0.1
2016-Jul-22 10:33N 37°57' E 023°34'3 2.6
2016-Jul-22 09:33N 37°56' E 023°38'0 0.0
2016-Jul-22 08:33N 37°56' E 023°38'0 0.0
2016-Jul-22 07:33N 37°56' E 023°38'2 2.5
2016-Jul-22 06:33N 37°57' E 023°34'6 0.3
2016-Jul-21 11:33N 38°02' E 023°32'1 0.9
2016-Jul-21 10:33N 38°02' E 023°31'0 0.0
2016-Jul-21 09:34N 38°02' E 023°31'0 0.4
2016-Jul-21 08:34N 38°02' E 023°31'3 3.2
2016-Jul-21 07:34N 38°02' E 023°35'0 0.0
2016-Jul-21 06:34N 38°02' E 023°35'0 0.0
2016-Jul-21 05:34N 38°02' E 023°35'0 0.0
2016-Jul-21 04:34N 38°02' E 023°35'3 0.2
2016-Jul-20 15:31N 38°02' E 023°32'5 5.3
2016-Jul-20 14:33N 37°57' E 023°33'4 4.0
2016-Jul-20 13:33N 37°57' E 023°38'0 0.0
2016-Jul-20 12:33N 37°57' E 023°38'2 1.8
2016-Jul-20 11:33N 37°57' E 023°36'5 4.6
2016-Jul-20 10:33N 38°00' E 023°33'2 1.9
2016-Jul-20 09:34N 38°02' E 023°32'  

Dump ship's entire track history